Gretna, United Kingdom
Current Conditions -  °F | °C
As of 5:50 PM on Friday 24 Oct 2014 (Local Time) from EGNC Reporting Station
Rain Showers Rain Showers  
Wind Chill: 43°   Ceiling: Unl
Heat Index: 48°   Visibility: 6mi
Dew Point: 46°   Wind: 12mph
Humidity: 93%   Direction: 230°SW
Pressure: 29.8"   Gusts: NA
Location:  54.99°N, 3.07°W
Report Text: EGNC 241650Z 23010KT 9999 VCSH FEW017 SCT027 SCT038 09/08 Q1009
Loading
Personal Weather Stations






























Interactive Weather Map
Tropical Storm Tracking
New forecast layout! Learn more

10-Day Weather Forecast

Advertisements
Track Severe Weather on mobile